sensor_id;sensor_type;location;lat;lon;timestamp;temperature;humidity
2162;DHT22;1087;50.226;8.682;2023-02-22T00:00:22;8.70;99.90
2162;DHT22;1087;50.226;8.682;2023-02-22T00:02:56;8.70;99.90
2162;DHT22;1087;50.226;8.682;2023-02-22T00:05:26;8.70;99.90
2162;DHT22;1087;50.226;8.682;2023-02-22T00:07:52;8.70;99.90
2162;DHT22;1087;50.226;8.682;2023-02-22T00:10:21;8.60;99.90
2162;DHT22;1087;50.226;8.682;2023-02-22T00:12:49;8.60;99.90
2162;DHT22;1087;50.226;8.682;2023-02-22T00:15:17;8.70;99.90
2162;DHT22;1087;50.226;8.682;2023-02-22T00:17:43;8.70;99.90
2162;DHT22;1087;50.226;8.682;2023-02-22T00:20:10;8.70;99.90
2162;DHT22;1087;50.226;8.682;2023-02-22T00:22:43;8.60;99.90
2162;DHT22;1087;50.226;8.682;2023-02-22T00:25:12;8.60;99.90
2162;DHT22;1087;50.226;8.682;2023-02-22T00:27:37;8.60;99.90
2162;DHT22;1087;50.226;8.682;2023-02-22T00:30:04;8.60;99.90
2162;DHT22;1087;50.226;8.682;2023-02-22T00:32:30;8.60;99.90
2162;DHT22;1087;50.226;8.682;2023-02-22T00:34:56;8.50;99.90
2162;DHT22;1087;50.226;8.682;2023-02-22T00:37:21;8.50;99.90
2162;DHT22;1087;50.226;8.682;2023-02-22T00:39:47;8.50;99.90
2162;DHT22;1087;50.226;8.682;2023-02-22T00:42:14;8.40;99.90
2162;DHT22;1087;50.226;8.682;2023-02-22T00:44:40;8.50;99.90
2162;DHT22;1087;50.226;8.682;2023-02-22T00:47:05;8.40;99.90
2162;DHT22;1087;50.226;8.682;2023-02-22T00:49:31;8.40;99.90
2162;DHT22;1087;50.226;8.682;2023-02-22T00:51:56;8.40;99.90
2162;DHT22;1087;50.226;8.682;2023-02-22T00:54:22;8.40;99.90
2162;DHT22;1087;50.226;8.682;2023-02-22T00:56:47;8.40;99.90
2162;DHT22;1087;50.226;8.682;2023-02-22T00:59:15;8.30;99.90
2162;DHT22;1087;50.226;8.682;2023-02-22T01:01:40;8.30;99.90
2162;DHT22;1087;50.226;8.682;2023-02-22T01:04:07;8.30;99.90
2162;DHT22;1087;50.226;8.682;2023-02-22T01:06:33;8.30;99.90
2162;DHT22;1087;50.226;8.682;2023-02-22T01:08:58;8.20;99.90
2162;DHT22;1087;50.226;8.682;2023-02-22T01:11:24;8.20;99.90
2162;DHT22;1087;50.226;8.682;2023-02-22T01:13:49;8.20;99.90
2162;DHT22;1087;50.226;8.682;2023-02-22T01:16:18;8.20;99.90
2162;DHT22;1087;50.226;8.682;2023-02-22T01:18:44;8.20;99.90
2162;DHT22;1087;50.226;8.682;2023-02-22T01:21:10;8.20;99.90
2162;DHT22;1087;50.226;8.682;2023-02-22T01:23:36;8.20;99.90
2162;DHT22;1087;50.226;8.682;2023-02-22T01:26:02;8.20;99.90
2162;DHT22;1087;50.226;8.682;2023-02-22T01:28:30;8.30;99.90
2162;DHT22;1087;50.226;8.682;2023-02-22T01:30:56;8.20;99.90
2162;DHT22;1087;50.226;8.682;2023-02-22T01:33:21;8.20;99.90
2162;DHT22;1087;50.226;8.682;2023-02-22T01:35:47;8.20;99.90
2162;DHT22;1087;50.226;8.682;2023-02-22T01:38:15;8.30;99.90
2162;DHT22;1087;50.226;8.682;2023-02-22T01:40:42;8.20;99.90
2162;DHT22;1087;50.226;8.682;2023-02-22T01:43:19;8.10;99.90
2162;DHT22;1087;50.226;8.682;2023-02-22T01:48:30;8.00;99.90
2162;DHT22;1087;50.226;8.682;2023-02-22T01:51:08;8.00;99.90
2162;DHT22;1087;50.226;8.682;2023-02-22T01:53:39;8.00;99.90
2162;DHT22;1087;50.226;8.682;2023-02-22T01:56:06;8.00;99.90
2162;DHT22;1087;50.226;8.682;2023-02-22T01:58:33;8.00;99.90
2162;DHT22;1087;50.226;8.682;2023-02-22T02:01:00;8.00;99.90
2162;DHT22;1087;50.226;8.682;2023-02-22T02:03:29;7.90;99.90
2162;DHT22;1087;50.226;8.682;2023-02-22T02:06:00;7.90;99.90
2162;DHT22;1087;50.226;8.682;2023-02-22T02:08:34;7.90;99.90
2162;DHT22;1087;50.226;8.682;2023-02-22T02:11:03;7.90;99.90
2162;DHT22;1087;50.226;8.682;2023-02-22T02:13:29;7.90;99.90
2162;DHT22;1087;50.226;8.682;2023-02-22T02:15:55;7.90;99.90
2162;DHT22;1087;50.226;8.682;2023-02-22T02:18:21;7.90;99.90
2162;DHT22;1087;50.226;8.682;2023-02-22T02:21:23;7.90;99.90
2162;DHT22;1087;50.226;8.682;2023-02-22T02:27:15;7.90;99.90
2162;DHT22;1087;50.226;8.682;2023-02-22T02:30:08;7.80;99.90
2162;DHT22;1087;50.226;8.682;2023-02-22T02:35:40;7.70;99.90
2162;DHT22;1087;50.226;8.682;2023-02-22T02:41:15;7.70;99.90
2162;DHT22;1087;50.226;8.682;2023-02-22T02:43:45;7.70;99.90
2162;DHT22;1087;50.226;8.682;2023-02-22T02:46:20;7.70;99.90
2162;DHT22;1087;50.226;8.682;2023-02-22T02:48:52;7.60;99.90
2162;DHT22;1087;50.226;8.682;2023-02-22T02:51:22;7.60;99.90
2162;DHT22;1087;50.226;8.682;2023-02-22T02:53:50;7.60;99.90
2162;DHT22;1087;50.226;8.682;2023-02-22T02:56:17;7.60;99.90
2162;DHT22;1087;50.226;8.682;2023-02-22T02:58:48;7.50;99.90
2162;DHT22;1087;50.226;8.682;2023-02-22T03:01:28;7.40;99.90
2162;DHT22;1087;50.226;8.682;2023-02-22T03:12:37;7.40;99.90
2162;DHT22;1087;50.226;8.682;2023-02-22T03:15:12;7.30;99.90
2162;DHT22;1087;50.226;8.682;2023-02-22T03:17:45;7.40;99.90
2162;DHT22;1087;50.226;8.682;2023-02-22T03:23:00;7.40;99.90
2162;DHT22;1087;50.226;8.682;2023-02-22T03:25:42;7.30;99.90
2162;DHT22;1087;50.226;8.682;2023-02-22T03:28:14;7.30;99.90
2162;DHT22;1087;50.226;8.682;2023-02-22T03:33:39;7.30;99.90
2162;DHT22;1087;50.226;8.682;2023-02-22T03:36:16;7.40;99.90
2162;DHT22;1087;50.226;8.682;2023-02-22T03:38:44;7.30;99.90
2162;DHT22;1087;50.226;8.682;2023-02-22T03:41:11;7.30;99.90
2162;DHT22;1087;50.226;8.682;2023-02-22T03:44:03;7.30;99.90
2162;DHT22;1087;50.226;8.682;2023-02-22T03:46:27;7.20;99.90
2162;DHT22;1087;50.226;8.682;2023-02-22T03:49:19;7.20;99.90
2162;DHT22;1087;50.226;8.682;2023-02-22T03:51:47;7.20;99.90
2162;DHT22;1087;50.226;8.682;2023-02-22T03:54:13;7.20;99.90
2162;DHT22;1087;50.226;8.682;2023-02-22T03:56:55;7.30;99.90
2162;DHT22;1087;50.226;8.682;2023-02-22T03:59:23;7.20;99.90
2162;DHT22;1087;50.226;8.682;2023-02-22T04:01:54;7.20;99.90
2162;DHT22;1087;50.226;8.682;2023-02-22T04:04:21;7.20;99.90
2162;DHT22;1087;50.226;8.682;2023-02-22T04:06:48;7.20;99.90
2162;DHT22;1087;50.226;8.682;2023-02-22T04:09:15;7.20;99.90
2162;DHT22;1087;50.226;8.682;2023-02-22T04:11:40;7.20;99.90
2162;DHT22;1087;50.226;8.682;2023-02-22T04:14:06;7.20;99.90
2162;DHT22;1087;50.226;8.682;2023-02-22T04:16:31;7.10;99.90
2162;DHT22;1087;50.226;8.682;2023-02-22T04:18:57;7.10;99.90
2162;DHT22;1087;50.226;8.682;2023-02-22T04:21:22;7.10;99.90
2162;DHT22;1087;50.226;8.682;2023-02-22T04:23:49;7.10;99.90
2162;DHT22;1087;50.226;8.682;2023-02-22T04:26:15;7.10;99.90
2162;DHT22;1087;50.226;8.682;2023-02-22T04:28:41;7.10;99.90
2162;DHT22;1087;50.226;8.682;2023-02-22T04:31:06;7.10;99.90
2162;DHT22;1087;50.226;8.682;2023-02-22T04:33:32;7.00;99.90
2162;DHT22;1087;50.226;8.682;2023-02-22T04:35:57;7.00;99.90
2162;DHT22;1087;50.226;8.682;2023-02-22T04:38:24;7.00;99.90
2162;DHT22;1087;50.226;8.682;2023-02-22T04:40:51;7.00;99.90
2162;DHT22;1087;50.226;8.682;2023-02-22T04:43:17;7.00;99.90
2162;DHT22;1087;50.226;8.682;2023-02-22T04:45:42;6.90;99.90
2162;DHT22;1087;50.226;8.682;2023-02-22T04:48:08;6.90;99.90
2162;DHT22;1087;50.226;8.682;2023-02-22T04:50:33;7.00;99.90
2162;DHT22;1087;50.226;8.682;2023-02-22T04:52:59;7.00;99.90
2162;DHT22;1087;50.226;8.682;2023-02-22T04:55:25;6.90;99.90
2162;DHT22;1087;50.226;8.682;2023-02-22T04:57:51;6.90;99.90
2162;DHT22;1087;50.226;8.682;2023-02-22T05:00:18;6.90;99.90
2162;DHT22;1087;50.226;8.682;2023-02-22T05:02:46;6.90;99.90
2162;DHT22;1087;50.226;8.682;2023-02-22T05:05:13;6.90;99.90
2162;DHT22;1087;50.226;8.682;2023-02-22T05:07:39;6.80;99.90
2162;DHT22;1087;50.226;8.682;2023-02-22T05:10:05;6.80;99.90
2162;DHT22;1087;50.226;8.682;2023-02-22T05:12:30;6.70;99.90
2162;DHT22;1087;50.226;8.682;2023-02-22T05:14:56;6.70;99.90
2162;DHT22;1087;50.226;8.682;2023-02-22T05:17:21;6.80;99.90
2162;DHT22;1087;50.226;8.682;2023-02-22T05:19:47;6.70;99.90
2162;DHT22;1087;50.226;8.682;2023-02-22T05:22:12;6.80;99.90
2162;DHT22;1087;50.226;8.682;2023-02-22T05:24:38;6.70;99.90
2162;DHT22;1087;50.226;8.682;2023-02-22T05:27:03;6.70;99.90
2162;DHT22;1087;50.226;8.682;2023-02-22T05:29:29;6.70;99.90
2162;DHT22;1087;50.226;8.682;2023-02-22T05:31:54;6.70;99.90
2162;DHT22;1087;50.226;8.682;2023-02-22T05:34:20;6.60;99.90
2162;DHT22;1087;50.226;8.682;2023-02-22T05:36:46;6.70;99.90
2162;DHT22;1087;50.226;8.682;2023-02-22T05:39:11;6.70;99.90
2162;DHT22;1087;50.226;8.682;2023-02-22T05:41:37;6.60;99.90
2162;DHT22;1087;50.226;8.682;2023-02-22T05:44:02;6.60;99.90
2162;DHT22;1087;50.226;8.682;2023-02-22T05:46:28;6.60;99.90
2162;DHT22;1087;50.226;8.682;2023-02-22T05:48:54;6.60;99.90
2162;DHT22;1087;50.226;8.682;2023-02-22T05:51:19;6.50;99.90
2162;DHT22;1087;50.226;8.682;2023-02-22T05:53:45;6.40;99.90
2162;DHT22;1087;50.226;8.682;2023-02-22T05:56:10;6.40;99.90
2162;DHT22;1087;50.226;8.682;2023-02-22T05:58:36;6.40;99.90
2162;DHT22;1087;50.226;8.682;2023-02-22T06:01:01;6.40;99.90
2162;DHT22;1087;50.226;8.682;2023-02-22T06:03:27;6.30;99.90
2162;DHT22;1087;50.226;8.682;2023-02-22T06:05:52;6.30;99.90
2162;DHT22;1087;50.226;8.682;2023-02-22T06:08:18;6.20;99.90
2162;DHT22;1087;50.226;8.682;2023-02-22T06:10:44;6.20;99.90
2162;DHT22;1087;50.226;8.682;2023-02-22T06:13:09;6.30;99.90
2162;DHT22;1087;50.226;8.682;2023-02-22T06:15:35;6.20;99.90
2162;DHT22;1087;50.226;8.682;2023-02-22T06:18:01;6.20;99.90
2162;DHT22;1087;50.226;8.682;2023-02-22T06:20:28;6.20;99.90
2162;DHT22;1087;50.226;8.682;2023-02-22T06:22:55;6.20;99.90
2162;DHT22;1087;50.226;8.682;2023-02-22T06:25:24;6.10;99.90
2162;DHT22;1087;50.226;8.682;2023-02-22T06:27:50;6.10;99.90
2162;DHT22;1087;50.226;8.682;2023-02-22T06:30:20;6.10;99.90
2162;DHT22;1087;50.226;8.682;2023-02-22T06:32:45;6.10;99.90
2162;DHT22;1087;50.226;8.682;2023-02-22T06:35:11;6.10;99.90
2162;DHT22;1087;50.226;8.682;2023-02-22T06:37:38;6.10;99.90
2162;DHT22;1087;50.226;8.682;2023-02-22T06:40:04;6.20;99.90
2162;DHT22;1087;50.226;8.682;2023-02-22T06:42:30;6.20;99.90
2162;DHT22;1087;50.226;8.682;2023-02-22T06:44:55;6.10;99.90
2162;DHT22;1087;50.226;8.682;2023-02-22T06:47:21;6.00;99.90
2162;DHT22;1087;50.226;8.682;2023-02-22T06:49:54;6.00;99.90
2162;DHT22;1087;50.226;8.682;2023-02-22T06:52:20;6.00;99.90
2162;DHT22;1087;50.226;8.682;2023-02-22T06:54:47;6.00;99.90
2162;DHT22;1087;50.226;8.682;2023-02-22T06:57:12;6.00;99.90
2162;DHT22;1087;50.226;8.682;2023-02-22T06:59:38;6.00;99.90
2162;DHT22;1087;50.226;8.682;2023-02-22T07:02:03;6.00;99.90
2162;DHT22;1087;50.226;8.682;2023-02-22T07:04:29;6.10;99.90
2162;DHT22;1087;50.226;8.682;2023-02-22T07:06:55;6.10;99.90
2162;DHT22;1087;50.226;8.682;2023-02-22T07:09:20;6.20;99.90
2162;DHT22;1087;50.226;8.682;2023-02-22T07:11:46;6.10;99.90
2162;DHT22;1087;50.226;8.682;2023-02-22T07:14:12;6.10;99.90
2162;DHT22;1087;50.226;8.682;2023-02-22T07:16:37;6.20;99.90
2162;DHT22;1087;50.226;8.682;2023-02-22T07:19:03;6.20;99.90
2162;DHT22;1087;50.226;8.682;2023-02-22T07:21:29;6.20;99.90
2162;DHT22;1087;50.226;8.682;2023-02-22T07:23:56;6.20;99.90
2162;DHT22;1087;50.226;8.682;2023-02-22T07:26:23;6.20;99.90
2162;DHT22;1087;50.226;8.682;2023-02-22T07:28:49;6.10;99.90
2162;DHT22;1087;50.226;8.682;2023-02-22T07:31:14;6.20;99.90
2162;DHT22;1087;50.226;8.682;2023-02-22T07:33:40;6.10;99.90
2162;DHT22;1087;50.226;8.682;2023-02-22T07:36:06;6.10;99.90
2162;DHT22;1087;50.226;8.682;2023-02-22T07:38:31;6.10;99.90
2162;DHT22;1087;50.226;8.682;2023-02-22T07:40:57;6.10;99.90
2162;DHT22;1087;50.226;8.682;2023-02-22T07:43:24;6.20;99.90
2162;DHT22;1087;50.226;8.682;2023-02-22T07:45:52;6.20;99.90
2162;DHT22;1087;50.226;8.682;2023-02-22T07:48:20;6.20;99.90
2162;DHT22;1087;50.226;8.682;2023-02-22T07:50:46;6.00;99.90
2162;DHT22;1087;50.226;8.682;2023-02-22T07:53:21;6.10;99.90
2162;DHT22;1087;50.226;8.682;2023-02-22T07:55:46;6.10;99.90
2162;DHT22;1087;50.226;8.682;2023-02-22T07:58:16;6.10;99.90
2162;DHT22;1087;50.226;8.682;2023-02-22T08:00:42;5.90;99.90
2162;DHT22;1087;50.226;8.682;2023-02-22T08:03:10;6.00;99.90
2162;DHT22;1087;50.226;8.682;2023-02-22T08:05:38;6.20;99.90
2162;DHT22;1087;50.226;8.682;2023-02-22T08:08:05;6.20;99.90
2162;DHT22;1087;50.226;8.682;2023-02-22T08:10:30;6.30;99.90
2162;DHT22;1087;50.226;8.682;2023-02-22T08:12:56;6.40;99.90
2162;DHT22;1087;50.226;8.682;2023-02-22T08:15:28;6.50;99.90
2162;DHT22;1087;50.226;8.682;2023-02-22T08:17:54;6.50;99.90
2162;DHT22;1087;50.226;8.682;2023-02-22T08:20:20;6.60;99.90
2162;DHT22;1087;50.226;8.682;2023-02-22T08:22:46;6.60;99.90
2162;DHT22;1087;50.226;8.682;2023-02-22T08:25:15;6.60;99.90
2162;DHT22;1087;50.226;8.682;2023-02-22T08:27:41;6.50;99.90
2162;DHT22;1087;50.226;8.682;2023-02-22T08:30:12;6.50;99.90
2162;DHT22;1087;50.226;8.682;2023-02-22T08:32:38;6.40;99.90
2162;DHT22;1087;50.226;8.682;2023-02-22T08:35:04;6.50;99.90
2162;DHT22;1087;50.226;8.682;2023-02-22T08:37:29;6.50;99.90
2162;DHT22;1087;50.226;8.682;2023-02-22T08:39:55;6.60;99.90
2162;DHT22;1087;50.226;8.682;2023-02-22T08:42:21;6.70;99.90
2162;DHT22;1087;50.226;8.682;2023-02-22T08:44:46;6.70;99.90
2162;DHT22;1087;50.226;8.682;2023-02-22T08:47:12;6.60;99.90
2162;DHT22;1087;50.226;8.682;2023-02-22T08:49:37;6.60;99.90
2162;DHT22;1087;50.226;8.682;2023-02-22T08:52:03;6.60;99.90
2162;DHT22;1087;50.226;8.682;2023-02-22T08:54:28;6.70;99.90
2162;DHT22;1087;50.226;8.682;2023-02-22T08:56:54;6.80;99.90
2162;DHT22;1087;50.226;8.682;2023-02-22T08:59:19;6.90;99.90
2162;DHT22;1087;50.226;8.682;2023-02-22T09:01:45;7.00;99.90
2162;DHT22;1087;50.226;8.682;2023-02-22T09:04:10;7.10;99.90
2162;DHT22;1087;50.226;8.682;2023-02-22T09:06:39;7.10;99.90
2162;DHT22;1087;50.226;8.682;2023-02-22T09:09:07;7.20;99.90
2162;DHT22;1087;50.226;8.682;2023-02-22T09:11:32;7.10;99.90
2162;DHT22;1087;50.226;8.682;2023-02-22T09:13:58;7.10;99.90
2162;DHT22;1087;50.226;8.682;2023-02-22T09:16:23;7.20;99.90
2162;DHT22;1087;50.226;8.682;2023-02-22T09:18:49;7.10;99.90
2162;DHT22;1087;50.226;8.682;2023-02-22T09:21:14;7.10;99.90
2162;DHT22;1087;50.226;8.682;2023-02-22T09:23:40;7.20;99.90
2162;DHT22;1087;50.226;8.682;2023-02-22T09:26:07;7.20;99.90
2162;DHT22;1087;50.226;8.682;2023-02-22T09:28:33;7.20;99.90
2162;DHT22;1087;50.226;8.682;2023-02-22T09:30:58;7.20;99.90
2162;DHT22;1087;50.226;8.682;2023-02-22T09:33:24;7.20;99.90
2162;DHT22;1087;50.226;8.682;2023-02-22T09:35:50;7.20;99.90
2162;DHT22;1087;50.226;8.682;2023-02-22T09:38:18;7.40;99.90
2162;DHT22;1087;50.226;8.682;2023-02-22T09:41:17;7.50;99.90
2162;DHT22;1087;50.226;8.682;2023-02-22T09:46:26;7.60;99.90
2162;DHT22;1087;50.226;8.682;2023-02-22T09:49:27;7.70;99.90
2162;DHT22;1087;50.226;8.682;2023-02-22T09:54:46;7.70;99.90
2162;DHT22;1087;50.226;8.682;2023-02-22T09:57:19;7.80;99.90
2162;DHT22;1087;50.226;8.682;2023-02-22T10:05:46;8.00;99.90
2162;DHT22;1087;50.226;8.682;2023-02-22T10:08:16;8.00;99.90
2162;DHT22;1087;50.226;8.682;2023-02-22T10:10:44;8.10;99.90
2162;DHT22;1087;50.226;8.682;2023-02-22T10:13:28;8.20;99.90
2162;DHT22;1087;50.226;8.682;2023-02-22T10:16:32;8.10;99.90
2162;DHT22;1087;50.226;8.682;2023-02-22T10:19:21;8.20;99.90
2162;DHT22;1087;50.226;8.682;2023-02-22T10:22:06;8.30;99.90
2162;DHT22;1087;50.226;8.682;2023-02-22T10:25:00;8.20;99.90
2162;DHT22;1087;50.226;8.682;2023-02-22T10:27:54;8.10;99.90
2162;DHT22;1087;50.226;8.682;2023-02-22T10:30:33;8.20;99.90
2162;DHT22;1087;50.226;8.682;2023-02-22T10:33:45;8.30;99.90
2162;DHT22;1087;50.226;8.682;2023-02-22T10:36:01;8.30;99.90
2162;DHT22;1087;50.226;8.682;2023-02-22T10:38:33;8.10;99.90
2162;DHT22;1087;50.226;8.682;2023-02-22T10:43:33;8.30;99.90
2162;DHT22;1087;50.226;8.682;2023-02-22T10:46:04;8.10;99.90
2162;DHT22;1087;50.226;8.682;2023-02-22T10:48:33;8.20;99.90
2162;DHT22;1087;50.226;8.682;2023-02-22T10:51:02;8.30;99.90
2162;DHT22;1087;50.226;8.682;2023-02-22T10:53:29;8.30;99.90
2162;DHT22;1087;50.226;8.682;2023-02-22T10:56:04;8.30;99.90
2162;DHT22;1087;50.226;8.682;2023-02-22T10:58:42;8.20;99.90
2162;DHT22;1087;50.226;8.682;2023-02-22T11:01:24;8.20;99.90
2162;DHT22;1087;50.226;8.682;2023-02-22T11:06:35;8.40;99.90
2162;DHT22;1087;50.226;8.682;2023-02-22T11:11:32;8.50;99.90
2162;DHT22;1087;50.226;8.682;2023-02-22T11:13:58;8.60;99.90
2162;DHT22;1087;50.226;8.682;2023-02-22T11:16:34;8.70;99.90
2162;DHT22;1087;50.226;8.682;2023-02-22T11:21:26;8.70;99.90
2162;DHT22;1087;50.226;8.682;2023-02-22T11:24:02;8.80;99.90
2162;DHT22;1087;50.226;8.682;2023-02-22T11:26:37;8.90;99.90
2162;DHT22;1087;50.226;8.682;2023-02-22T11:29:10;9.00;99.90
2162;DHT22;1087;50.226;8.682;2023-02-22T11:31:41;9.10;99.90
2162;DHT22;1087;50.226;8.682;2023-02-22T11:34:25;9.10;99.90
2162;DHT22;1087;50.226;8.682;2023-02-22T11:36:51;9.20;99.90
2162;DHT22;1087;50.226;8.682;2023-02-22T11:39:26;9.20;99.90
2162;DHT22;1087;50.226;8.682;2023-02-22T11:41:54;9.30;99.90
2162;DHT22;1087;50.226;8.682;2023-02-22T11:44:26;9.40;99.90
2162;DHT22;1087;50.226;8.682;2023-02-22T11:46:53;9.50;99.90
2162;DHT22;1087;50.226;8.682;2023-02-22T11:49:23;9.30;99.90
2162;DHT22;1087;50.226;8.682;2023-02-22T12:00:11;9.50;99.90
2162;DHT22;1087;50.226;8.682;2023-02-22T12:02:53;9.60;99.90
2162;DHT22;1087;50.226;8.682;2023-02-22T12:11:33;9.70;99.90
2162;DHT22;1087;50.226;8.682;2023-02-22T12:14:16;9.80;99.90
2162;DHT22;1087;50.226;8.682;2023-02-22T12:21:59;10.00;99.90
2162;DHT22;1087;50.226;8.682;2023-02-22T12:24:36;10.00;99.90
2162;DHT22;1087;50.226;8.682;2023-02-22T12:27:07;10.00;99.90
2162;DHT22;1087;50.226;8.682;2023-02-22T12:29:47;10.10;99.90
2162;DHT22;1087;50.226;8.682;2023-02-22T12:32:15;10.10;99.90
2162;DHT22;1087;50.226;8.682;2023-02-22T12:34:47;10.20;99.90
2162;DHT22;1087;50.226;8.682;2023-02-22T12:40:26;10.30;99.90
2162;DHT22;1087;50.226;8.682;2023-02-22T12:45:37;10.30;99.90
2162;DHT22;1087;50.226;8.682;2023-02-22T12:50:54;10.40;99.90
2162;DHT22;1087;50.226;8.682;2023-02-22T12:53:30;10.50;99.90
2162;DHT22;1087;50.226;8.682;2023-02-22T12:58:57;10.60;99.90
2162;DHT22;1087;50.226;8.682;2023-02-22T13:01:27;10.70;99.90
2162;DHT22;1087;50.226;8.682;2023-02-22T13:03:57;10.80;99.90
2162;DHT22;1087;50.226;8.682;2023-02-22T13:12:17;10.90;99.90
2162;DHT22;1087;50.226;8.682;2023-02-22T13:20:15;11.10;99.90
2162;DHT22;1087;50.226;8.682;2023-02-22T13:22:51;11.20;99.90
2162;DHT22;1087;50.226;8.682;2023-02-22T13:28:27;11.30;99.90
2162;DHT22;1087;50.226;8.682;2023-02-22T13:33:47;11.50;99.90
2162;DHT22;1087;50.226;8.682;2023-02-22T13:42:55;11.50;99.90
2162;DHT22;1087;50.226;8.682;2023-02-22T13:51:05;11.40;99.90
2162;DHT22;1087;50.226;8.682;2023-02-22T13:53:50;11.40;99.90
2162;DHT22;1087;50.226;8.682;2023-02-22T13:56:20;11.40;99.90
2162;DHT22;1087;50.226;8.682;2023-02-22T13:59:20;11.40;99.90
2162;DHT22;1087;50.226;8.682;2023-02-22T14:01:42;11.30;99.90
2162;DHT22;1087;50.226;8.682;2023-02-22T14:07:03;11.40;99.90
2162;DHT22;1087;50.226;8.682;2023-02-22T14:09:51;11.40;99.90
2162;DHT22;1087;50.226;8.682;2023-02-22T14:22:39;11.60;99.90
2162;DHT22;1087;50.226;8.682;2023-02-22T14:25:05;11.70;99.90
2162;DHT22;1087;50.226;8.682;2023-02-22T14:27:51;11.70;99.90
2162;DHT22;1087;50.226;8.682;2023-02-22T14:30:33;11.80;99.90
2162;DHT22;1087;50.226;8.682;2023-02-22T14:33:00;11.70;99.90
2162;DHT22;1087;50.226;8.682;2023-02-22T14:35:35;11.70;99.90
2162;DHT22;1087;50.226;8.682;2023-02-22T14:38:03;11.80;99.90
2162;DHT22;1087;50.226;8.682;2023-02-22T14:40:34;11.70;99.90
2162;DHT22;1087;50.226;8.682;2023-02-22T14:45:30;11.70;99.90
2162;DHT22;1087;50.226;8.682;2023-02-22T14:55:57;11.60;99.90
2162;DHT22;1087;50.226;8.682;2023-02-22T14:58:40;11.60;99.90
2162;DHT22;1087;50.226;8.682;2023-02-22T15:01:29;11.70;99.90
2162;DHT22;1087;50.226;8.682;2023-02-22T15:06:42;11.50;99.90
2162;DHT22;1087;50.226;8.682;2023-02-22T15:09:26;11.60;99.90
2162;DHT22;1087;50.226;8.682;2023-02-22T15:14:29;11.60;99.90
2162;DHT22;1087;50.226;8.682;2023-02-22T15:16:59;11.50;99.90
2162;DHT22;1087;50.226;8.682;2023-02-22T15:19:30;11.50;99.90
2162;DHT22;1087;50.226;8.682;2023-02-22T15:21:57;11.60;99.90
2162;DHT22;1087;50.226;8.682;2023-02-22T15:24:29;11.50;99.90
2162;DHT22;1087;50.226;8.682;2023-02-22T15:27:06;11.50;99.90
2162;DHT22;1087;50.226;8.682;2023-02-22T15:29:36;11.50;99.90
2162;DHT22;1087;50.226;8.682;2023-02-22T15:32:17;11.50;99.90
2162;DHT22;1087;50.226;8.682;2023-02-22T15:34:44;11.50;99.90
2162;DHT22;1087;50.226;8.682;2023-02-22T15:37:24;11.50;99.90
2162;DHT22;1087;50.226;8.682;2023-02-22T15:39:53;11.50;99.90
2162;DHT22;1087;50.226;8.682;2023-02-22T15:42:29;11.50;99.90
2162;DHT22;1087;50.226;8.682;2023-02-22T15:44:54;11.50;99.90
2162;DHT22;1087;50.226;8.682;2023-02-22T15:47:26;11.40;99.90
2162;DHT22;1087;50.226;8.682;2023-02-22T15:52:45;11.50;99.90
2162;DHT22;1087;50.226;8.682;2023-02-22T15:55:13;11.40;99.90
2162;DHT22;1087;50.226;8.682;2023-02-22T15:57:39;11.40;99.90
2162;DHT22;1087;50.226;8.682;2023-02-22T16:00:04;11.50;99.90
2162;DHT22;1087;50.226;8.682;2023-02-22T16:02:36;11.40;99.90
2162;DHT22;1087;50.226;8.682;2023-02-22T16:05:09;11.40;99.90
2162;DHT22;1087;50.226;8.682;2023-02-22T16:07:45;11.40;99.90
2162;DHT22;1087;50.226;8.682;2023-02-22T16:10:30;11.40;99.90
2162;DHT22;1087;50.226;8.682;2023-02-22T16:13:25;11.40;99.90
2162;DHT22;1087;50.226;8.682;2023-02-22T16:16:00;11.40;99.90
2162;DHT22;1087;50.226;8.682;2023-02-22T16:18:34;11.40;99.90
2162;DHT22;1087;50.226;8.682;2023-02-22T16:21:03;11.30;99.90
2162;DHT22;1087;50.226;8.682;2023-02-22T16:23:30;11.30;99.90
2162;DHT22;1087;50.226;8.682;2023-02-22T16:26:18;11.30;99.90
2162;DHT22;1087;50.226;8.682;2023-02-22T16:28:49;11.20;99.90
2162;DHT22;1087;50.226;8.682;2023-02-22T16:31:19;11.30;99.90
2162;DHT22;1087;50.226;8.682;2023-02-22T16:33:46;11.20;99.90
2162;DHT22;1087;50.226;8.682;2023-02-22T16:36:12;11.20;99.90
2162;DHT22;1087;50.226;8.682;2023-02-22T16:38:38;11.20;99.90
2162;DHT22;1087;50.226;8.682;2023-02-22T16:41:05;11.20;99.90
2162;DHT22;1087;50.226;8.682;2023-02-22T16:43:32;11.20;99.90
2162;DHT22;1087;50.226;8.682;2023-02-22T16:46:02;11.20;99.90
2162;DHT22;1087;50.226;8.682;2023-02-22T16:48:30;11.20;99.90
2162;DHT22;1087;50.226;8.682;2023-02-22T16:51:05;11.20;99.90
2162;DHT22;1087;50.226;8.682;2023-02-22T16:53:32;11.20;99.90
2162;DHT22;1087;50.226;8.682;2023-02-22T16:56:02;11.20;99.90
2162;DHT22;1087;50.226;8.682;2023-02-22T16:58:32;11.20;99.90
2162;DHT22;1087;50.226;8.682;2023-02-22T17:00:57;11.20;99.90
2162;DHT22;1087;50.226;8.682;2023-02-22T17:03:23;11.20;99.90
2162;DHT22;1087;50.226;8.682;2023-02-22T17:05:49;11.20;99.90
2162;DHT22;1087;50.226;8.682;2023-02-22T17:08:15;11.20;99.90
2162;DHT22;1087;50.226;8.682;2023-02-22T17:10:41;11.20;99.90
2162;DHT22;1087;50.226;8.682;2023-02-22T17:13:07;11.20;99.90
2162;DHT22;1087;50.226;8.682;2023-02-22T17:15:34;11.20;99.90
2162;DHT22;1087;50.226;8.682;2023-02-22T17:18:01;11.20;99.90
2162;DHT22;1087;50.226;8.682;2023-02-22T17:20:30;11.20;99.90
2162;DHT22;1087;50.226;8.682;2023-02-22T17:23:01;11.20;99.90
2162;DHT22;1087;50.226;8.682;2023-02-22T17:25:32;11.20;99.90
2162;DHT22;1087;50.226;8.682;2023-02-22T17:27:58;11.20;99.90
2162;DHT22;1087;50.226;8.682;2023-02-22T17:30:24;11.20;99.90
2162;DHT22;1087;50.226;8.682;2023-02-22T17:32:51;11.20;99.90
2162;DHT22;1087;50.226;8.682;2023-02-22T17:35:19;11.20;99.90
2162;DHT22;1087;50.226;8.682;2023-02-22T17:37:48;11.20;99.90
2162;DHT22;1087;50.226;8.682;2023-02-22T17:40:14;11.20;99.90
2162;DHT22;1087;50.226;8.682;2023-02-22T17:42:41;11.20;99.90
2162;DHT22;1087;50.226;8.682;2023-02-22T17:45:07;11.20;99.90
2162;DHT22;1087;50.226;8.682;2023-02-22T17:47:33;11.20;99.90
2162;DHT22;1087;50.226;8.682;2023-02-22T17:49:59;11.20;99.90
2162;DHT22;1087;50.226;8.682;2023-02-22T17:52:24;11.20;99.90
2162;DHT22;1087;50.226;8.682;2023-02-22T17:54:51;11.20;99.90
2162;DHT22;1087;50.226;8.682;2023-02-22T17:57:17;11.10;99.90
2162;DHT22;1087;50.226;8.682;2023-02-22T17:59:42;11.10;99.90
2162;DHT22;1087;50.226;8.682;2023-02-22T18:02:08;11.10;99.90
2162;DHT22;1087;50.226;8.682;2023-02-22T18:04:34;11.10;99.90
2162;DHT22;1087;50.226;8.682;2023-02-22T18:07:01;11.10;99.90
2162;DHT22;1087;50.226;8.682;2023-02-22T18:09:26;11.10;99.90
2162;DHT22;1087;50.226;8.682;2023-02-22T18:11:52;11.10;99.90
2162;DHT22;1087;50.226;8.682;2023-02-22T18:14:17;11.10;99.90
2162;DHT22;1087;50.226;8.682;2023-02-22T18:16:43;11.10;99.90
2162;DHT22;1087;50.226;8.682;2023-02-22T18:19:11;11.00;99.90
2162;DHT22;1087;50.226;8.682;2023-02-22T18:21:36;11.00;99.90
2162;DHT22;1087;50.226;8.682;2023-02-22T18:24:02;11.00;99.90
2162;DHT22;1087;50.226;8.682;2023-02-22T18:26:28;11.00;99.90
2162;DHT22;1087;50.226;8.682;2023-02-22T18:28:53;11.00;99.90
2162;DHT22;1087;50.226;8.682;2023-02-22T18:31:21;10.90;99.90
2162;DHT22;1087;50.226;8.682;2023-02-22T18:33:49;10.90;99.90
2162;DHT22;1087;50.226;8.682;2023-02-22T18:36:16;10.90;99.90
2162;DHT22;1087;50.226;8.682;2023-02-22T18:38:47;10.90;99.90
2162;DHT22;1087;50.226;8.682;2023-02-22T18:41:15;10.80;99.90
2162;DHT22;1087;50.226;8.682;2023-02-22T18:43:41;10.80;99.90
2162;DHT22;1087;50.226;8.682;2023-02-22T18:46:15;10.90;99.90